Time;durP1;ratioP1;P1;durP2;ratioP2;P2;SDS_P1;SDS_P2;PMS_P1;PMS_P2;Temp;Humidity;BMP_temperature;BMP_pressure;BME280_temperature;BME280_humidity;BME280_pressure;Samples;Min_cycle;Max_cycle;Signal;HPM_P1;HPM_P2
2023/02/10 00:01:01;;;;;;;;;;;;;;;-5.63;100.00;100478.78;4998899;28;19952;-55
2023/02/10 00:03:28;;;;;;;;;;;;;;;-5.78;100.00;100482.66;4999102;28;19926;-55
2023/02/10 00:05:54;;;;;;;;;;;;;;;-5.90;100.00;100475.16;4996966;28;19960;-54
2023/02/10 00:08:22;;;;;;;;;;;;;;;-6.01;100.00;100474.34;5000113;28;19973;-56
2023/02/10 00:10:48;;;;;;;;;;;;;;;-6.09;100.00;100479.50;4999343;28;19929;-57
2023/02/10 00:13:14;;;;;;;;;;;;;;;-6.07;100.00;100478.84;4999573;28;19956;-55
2023/02/10 00:15:39;;;;;;;;;;;;;;;-6.11;100.00;100471.06;4998609;28;20451;-55
2023/02/10 00:18:05;;;;;;;;;;;;;;;-6.16;100.00;100472.31;4998475;28;20359;-54
2023/02/10 00:20:31;;;;;;;;;;;;;;;-6.12;100.00;100482.66;4999972;28;20379;-56
2023/02/10 00:22:56;;;;;;;;;;;;;;;-6.14;100.00;100489.13;4999616;28;19931;-53
2023/02/10 00:25:22;;;;;;;;;;;;;;;-6.07;100.00;100493.00;4998419;28;20039;-55
2023/02/10 00:27:47;;;;;;;;;;;;;;;-6.14;100.00;100498.25;4996221;28;19932;-54
2023/02/10 00:30:13;;;;;;;;;;;;;;;-6.14;100.00;100495.75;4995137;28;20384;-56
2023/02/10 00:32:40;;;;;;;;;;;;;;;-6.04;100.00;100488.22;5007217;28;20337;-55
2023/02/10 00:35:06;;;;;;;;;;;;;;;-6.16;100.00;100488.16;5000376;28;19936;-55
2023/02/10 00:37:31;;;;;;;;;;;;;;;-6.25;100.00;100497.44;5029545;28;20286;-54
2023/02/10 00:40:00;;;;;;;;;;;;;;;-6.37;100.00;100494.00;4999874;28;20417;-55
2023/02/10 00:42:25;;;;;;;;;;;;;;;-6.46;100.00;100488.31;4996551;28;19926;-58
2023/02/10 00:44:51;;;;;;;;;;;;;;;-6.54;100.00;100489.34;5031012;28;19933;-56
2023/02/10 00:47:16;;;;;;;;;;;;;;;-6.59;100.00;100488.09;4998920;28;20315;-55
2023/02/10 00:49:42;;;;;;;;;;;;;;;-6.62;100.00;100491.22;4998944;28;19929;-56
2023/02/10 00:52:07;;;;;;;;;;;;;;;-6.58;100.00;100490.72;4996588;28;19929;-58
2023/02/10 00:54:33;;;;;;;;;;;;;;;-6.46;100.00;100495.78;4998920;28;20339;-54
2023/02/10 00:56:59;;;;;;;;;;;;;;;-6.37;100.00;100496.50;5000286;28;19930;-56
2023/02/10 00:59:24;;;;;;;;;;;;;;;-6.30;100.00;100491.22;4998176;28;19938;-54
2023/02/10 01:01:49;;;;;;;;;;;;;;;-6.13;100.00;100487.50;4991905;28;19930;-56
2023/02/10 01:04:15;;;;;;;;;;;;;;;-6.03;100.00;100494.97;5029690;28;19930;-52
2023/02/10 01:06:41;;;;;;;;;;;;;;;-5.80;100.00;100495.00;4995775;28;20187;-54
2023/02/10 01:09:06;;;;;;;;;;;;;;;-5.84;100.00;100488.06;4997356;28;19929;-55
2023/02/10 01:11:32;;;;;;;;;;;;;;;-5.94;100.00;100485.63;4997016;28;20344;-57
2023/02/10 01:13:57;;;;;;;;;;;;;;;-5.88;100.00;100488.59;4999129;28;20324;-53
2023/02/10 01:16:23;;;;;;;;;;;;;;;-5.88;100.00;100488.59;4995641;28;20024;-54
2023/02/10 01:18:48;;;;;;;;;;;;;;;-5.85;100.00;100492.91;4997715;28;19929;-55
2023/02/10 01:21:16;;;;;;;;;;;;;;;-5.79;100.00;100484.28;4996527;28;19933;-55
2023/02/10 01:23:42;;;;;;;;;;;;;;;-5.64;100.00;100477.91;4998579;28;20436;-52
2023/02/10 01:26:08;;;;;;;;;;;;;;;-5.63;100.00;100481.28;5027605;28;19926;-56
2023/02/10 01:28:35;;;;;;;;;;;;;;;-5.75;100.00;100473.75;4996364;28;19933;-55
2023/02/10 01:31:07;;;;;;;;;;;;;;;-5.60;100.00;100477.38;4996425;28;20332;-53
2023/02/10 01:33:38;;;;;;;;;;;;;;;-5.61;100.00;100477.28;4998238;28;20463;-55
2023/02/10 01:36:05;;;;;;;;;;;;;;;-5.69;100.00;100479.22;4994687;28;19930;-55
2023/02/10 01:38:30;;;;;;;;;;;;;;;-5.66;100.00;100476.94;4997586;28;19932;-56
2023/02/10 01:40:56;;;;;;;;;;;;;;;-5.72;100.00;100476.47;5028691;28;19926;-53
2023/02/10 01:43:21;;;;;;;;;;;;;;;-5.60;100.00;100474.03;4997025;28;19975;-53
2023/02/10 01:45:50;;;;;;;;;;;;;;;-5.67;100.00;100467.69;4980396;28;19929;-54
2023/02/10 01:48:16;;;;;;;;;;;;;;;-5.75;100.00;100473.75;4996690;28;20194;-55
2023/02/10 01:50:44;;;;;;;;;;;;;;;-5.78;100.00;100475.16;4998442;28;19926;-54
2023/02/10 01:53:12;;;;;;;;;;;;;;;-5.84;100.00;100474.69;4997087;28;20391;-54
2023/02/10 01:55:39;;;;;;;;;;;;;;;-5.90;100.00;100470.16;5011528;28;19926;-54
2023/02/10 01:58:09;;;;;;;;;;;;;;;-5.87;100.00;100477.88;5028468;28;19932;-52
2023/02/10 02:00:35;;;;;;;;;;;;;;;-5.78;100.00;100473.53;5011478;28;19929;-54
2023/02/10 02:03:04;;;;;;;;;;;;;;;-5.82;100.00;100471.56;4998306;28;20242;-56
2023/02/10 02:05:31;;;;;;;;;;;;;;;-5.84;100.00;100463.06;4992898;28;19933;-55
2023/02/10 02:07:59;;;;;;;;;;;;;;;-5.81;100.00;100465.78;4994429;28;20008;-55
2023/02/10 02:10:30;;;;;;;;;;;;;;;-5.86;100.00;100469.59;5028966;28;19936;-54
2023/02/10 02:12:55;;;;;;;;;;;;;;;-5.86;100.00;100468.75;4997269;28;19925;-57
2023/02/10 02:15:27;;;;;;;;;;;;;;;-5.90;100.00;100465.16;4999500;28;19971;-55
2023/02/10 02:18:02;;;;;;;;;;;;;;;-5.77;100.00;100472.75;5005857;28;19925;-56
2023/02/10 02:20:43;;;;;;;;;;;;;;;-5.62;100.00;100465.53;4998794;28;20435;-57
2023/02/10 02:23:36;;;;;;;;;;;;;;;-5.57;100.00;100457.63;5010304;28;20541;-53
2023/02/10 02:26:08;;;;;;;;;;;;;;;-5.54;100.00;100456.97;4997312;28;19925;-55
2023/02/10 02:29:06;;;;;;;;;;;;;;;-5.54;100.00;100459.47;5027314;28;20292;-57
2023/02/10 02:31:35;;;;;;;;;;;;;;;-5.52;100.00;100453.81;4976948;28;19926;-56
2023/02/10 02:34:13;;;;;;;;;;;;;;;-5.48;100.00;100454.06;4996446;28;20028;-55
2023/02/10 02:36:45;;;;;;;;;;;;;;;-5.54;100.00;100447.88;4995999;28;19925;-53
2023/02/10 02:39:11;;;;;;;;;;;;;;;-5.63;100.00;100446.31;4995220;28;19930;-55
2023/02/10 02:41:36;;;;;;;;;;;;;;;-5.74;100.00;100449.66;4996468;28;20318;-55
2023/02/10 02:44:07;;;;;;;;;;;;;;;-5.74;100.00;100447.16;5028075;28;19941;-54
2023/02/10 02:46:56;;;;;;;;;;;;;;;-5.47;100.00;100453.31;4997617;28;19936;-54
2023/02/10 02:49:45;;;;;;;;;;;;;;;-5.50;100.00;100456.44;4990985;28;19933;-52
2023/02/10 02:52:22;;;;;;;;;;;;;;;-5.56;100.00;100449.38;4991976;28;20032;-58
2023/02/10 02:55:03;;;;;;;;;;;;;;;-5.54;100.00;100460.34;5028019;28;19925;-54
2023/02/10 02:57:39;;;;;;;;;;;;;;;-5.53;100.00;100457.09;4995996;28;19925;-54
2023/02/10 03:00:09;;;;;;;;;;;;;;;-5.59;100.00;100455.78;4996143;28;19937;-52
2023/02/10 03:02:37;;;;;;;;;;;;;;;-5.66;100.00;100461.09;4996674;28;19925;-53
2023/02/10 03:05:03;;;;;;;;;;;;;;;-5.77;100.00;100461.94;4998355;28;19932;-51
2023/02/10 03:07:28;;;;;;;;;;;;;;;-5.86;100.00;100464.59;5000830;28;20296;-54
2023/02/10 03:09:54;;;;;;;;;;;;;;;-5.90;100.00;100465.16;5001054;28;20520;-54
2023/02/10 03:12:19;;;;;;;;;;;;;;;-5.93;100.00;100464.03;5003805;28;20347;-55
2023/02/10 03:14:45;;;;;;;;;;;;;;;-6.00;100.00;100467.72;5000569;28;19922;-53
2023/02/10 03:17:10;;;;;;;;;;;;;;;-6.05;100.00;100469.00;5000221;28;20316;-51
2023/02/10 03:19:36;;;;;;;;;;;;;;;-6.05;100.00;100472.38;5000237;28;20359;-54
2023/02/10 03:22:02;;;;;;;;;;;;;;;-6.04;100.00;100473.25;4997900;28;19933;-52
2023/02/10 03:24:27;;;;;;;;;;;;;;;-6.06;100.00;100474.72;5002314;28;20266;-53
2023/02/10 03:26:53;;;;;;;;;;;;;;;-6.02;100.00;100476.72;5032667;28;19930;-52
2023/02/10 03:29:18;;;;;;;;;;;;;;;-6.08;100.00;100477.13;5001013;28;20381;-52
2023/02/10 03:31:44;;;;;;;;;;;;;;;-6.13;100.00;100480.91;4997908;28;20356;-55
2023/02/10 03:34:09;;;;;;;;;;;;;;;-6.10;100.00;100478.63;4997052;28;20334;-53
2023/02/10 03:36:35;;;;;;;;;;;;;;;-6.17;100.00;100476.44;4999042;28;19925;-53
2023/02/10 03:39:01;;;;;;;;;;;;;;;-6.21;100.00;100481.94;5001882;28;19991;-54
2023/02/10 03:41:26;;;;;;;;;;;;;;;-6.24;100.00;100488.34;4999765;28;19973;-53
2023/02/10 03:43:52;;;;;;;;;;;;;;;-6.23;100.00;100492.53;4999385;28;20024;-52
2023/02/10 03:46:17;;;;;;;;;;;;;;;-6.31;100.00;100493.59;5000185;28;19933;-55
2023/02/10 03:48:42;;;;;;;;;;;;;;;-6.34;100.00;100499.22;4998930;28;19973;-56
2023/02/10 03:51:08;;;;;;;;;;;;;;;-6.44;100.00;100504.25;4997325;28;20041;-54
2023/02/10 03:53:34;;;;;;;;;;;;;;;-6.52;100.00;100503.66;4999722;28;19959;-52
2023/02/10 03:56:00;;;;;;;;;;;;;;;-6.58;100.00;100499.84;5000336;28;20312;-56
2023/02/10 03:58:25;;;;;;;;;;;;;;;-6.62;100.00;100510.31;5000278;28;20477;-51
2023/02/10 04:00:51;;;;;;;;;;;;;;;-6.63;100.00;100511.06;4996824;28;20468;-50
2023/02/10 04:03:17;;;;;;;;;;;;;;;-6.43;100.00;100505.13;5002134;28;19952;-54
2023/02/10 04:05:43;;;;;;;;;;;;;;;-6.32;100.00;100512.66;5001199;28;19987;-55
2023/02/10 04:08:08;;;;;;;;;;;;;;;-6.33;100.00;100505.97;4999221;28;20308;-51
2023/02/10 04:10:34;;;;;;;;;;;;;;;-6.38;100.00;100513.84;5000816;28;20970;-55
2023/02/10 04:13:00;;;;;;;;;;;;;;;-6.39;100.00;100517.06;4999249;28;19961;-52
2023/02/10 04:15:25;;;;;;;;;;;;;;;-6.46;100.00;100513.25;4997858;28;20402;-55
2023/02/10 04:17:56;;;;;;;;;;;;;;;-6.37;100.00;100513.97;5001302;28;20360;-54
2023/02/10 04:20:21;;;;;;;;;;;;;;;-6.42;100.00;100512.72;4997788;28;19995;-54
2023/02/10 04:22:47;;;;;;;;;;;;;;;-6.46;100.00;100515.75;5000727;28;19961;-52
2023/02/10 04:25:12;;;;;;;;;;;;;;;-6.51;100.00;100525.38;4999216;28;20383;-52
2023/02/10 04:27:38;;;;;;;;;;;;;;;-6.61;100.00;100517.91;4998869;28;19921;-52
2023/02/10 04:30:04;;;;;;;;;;;;;;;-6.61;100.00;100514.53;5002021;28;19934;-58
2023/02/10 04:32:29;;;;;;;;;;;;;;;-6.54;100.00;100507.69;5012018;28;19929;-55
2023/02/10 04:34:55;;;;;;;;;;;;;;;-6.55;100.00;100507.53;5005872;28;19933;-57
2023/02/10 04:37:20;;;;;;;;;;;;;;;-6.36;100.00;100503.22;5007422;28;20455;-55
2023/02/10 04:39:46;;;;;;;;;;;;;;;-6.46;100.00;100508.25;5005514;28;20356;-59
2023/02/10 04:42:11;;;;;;;;;;;;;;;-6.41;100.00;100503.63;5000570;28;19933;-51
2023/02/10 04:44:37;;;;;;;;;;;;;;;-6.47;100.00;100501.53;4999694;28;19929;-57
2023/02/10 04:47:02;;;;;;;;;;;;;;;-6.50;100.00;100502.16;4996919;28;19926;-54
2023/02/10 04:49:28;;;;;;;;;;;;;;;-6.49;100.00;100510.50;4997030;28;19933;-53
2023/02/10 04:51:53;;;;;;;;;;;;;;;-6.51;100.00;100510.41;4999504;28;19934;-55
2023/02/10 04:54:20;;;;;;;;;;;;;;;-6.56;100.00;100505.78;5000284;28;19930;-56
2023/02/10 04:56:45;;;;;;;;;;;;;;;-6.53;100.00;100516.00;4994958;28;19930;-56
2023/02/10 04:59:10;;;;;;;;;;;;;;;-6.44;100.00;100518.34;4996127;28;19925;-51
2023/02/10 05:01:36;;;;;;;;;;;;;;;-6.47;100.00;100514.88;4998901;28;20512;-54
2023/02/10 05:04:02;;;;;;;;;;;;;;;-6.58;100.00;100519.78;4999636;28;20408;-51
2023/02/10 05:06:27;;;;;;;;;;;;;;;-6.65;100.00;100515.91;4999648;28;20427;-51
2023/02/10 05:08:53;;;;;;;;;;;;;;;-6.72;100.00;100518.69;4998334;28;20380;-52
2023/02/10 05:11:20;;;;;;;;;;;;;;;-6.68;100.00;100523.16;4998073;28;19975;-53
2023/02/10 05:13:45;;;;;;;;;;;;;;;-6.76;100.00;100534.16;4998392;28;20386;-56
2023/02/10 05:16:12;;;;;;;;;;;;;;;-6.84;100.00;100531.81;4998919;28;19925;-56
2023/02/10 05:18:39;;;;;;;;;;;;;;;-6.84;100.00;100536.78;4999328;28;19925;-54
2023/02/10 05:21:05;;;;;;;;;;;;;;;-6.88;100.00;100529.81;4999206;28;20119;-56
2023/02/10 05:23:30;;;;;;;;;;;;;;;-6.87;100.00;100539.06;4999447;28;20347;-53
2023/02/10 05:25:55;;;;;;;;;;;;;;;-6.85;100.00;100543.41;4997814;28;20016;-53
2023/02/10 05:28:21;;;;;;;;;;;;;;;-6.86;100.00;100544.13;4997958;28;19936;-53
2023/02/10 05:30:47;;;;;;;;;;;;;;;-6.88;100.00;100538.19;4998138;28;20368;-54
2023/02/10 05:33:13;;;;;;;;;;;;;;;-6.92;100.00;100533.69;4998678;28;19934;-53
2023/02/10 05:35:40;;;;;;;;;;;;;;;-6.92;100.00;100528.72;4999453;28;19929;-54
2023/02/10 05:38:05;;;;;;;;;;;;;;;-6.97;100.00;100535.81;4998937;28;19938;-52
2023/02/10 05:40:32;;;;;;;;;;;;;;;-7.04;100.00;100533.56;4998157;28;20029;-54
2023/02/10 05:42:57;;;;;;;;;;;;;;;-7.08;100.00;100539.06;5031056;28;20016;-56
2023/02/10 05:45:25;;;;;;;;;;;;;;;-7.11;100.00;100547.91;4998792;28;19926;-51
2023/02/10 05:47:51;;;;;;;;;;;;;;;-7.13;100.00;100549.41;4996095;28;19930;-54
2023/02/10 05:50:17;;;;;;;;;;;;;;;-7.15;100.00;100556.75;4997296;28;20045;-54
2023/02/10 05:52:43;;;;;;;;;;;;;;;-7.19;100.00;100558.88;4996729;28;19956;-55
2023/02/10 05:55:08;;;;;;;;;;;;;;;-7.20;100.00;100560.50;4994411;28;19926;-55
2023/02/10 05:57:34;;;;;;;;;;;;;;;-7.16;100.00;100569.09;4997787;28;19945;-55
2023/02/10 05:59:59;;;;;;;;;;;;;;;-7.22;100.00;100569.47;4996652;28;20471;-56
2023/02/10 06:02:25;;;;;;;;;;;;;;;-7.16;100.00;100572.44;4987915;28;20517;-55
2023/02/10 06:04:50;;;;;;;;;;;;;;;-7.21;100.00;100568.72;4998095;28;20384;-53
2023/02/10 06:07:16;;;;;;;;;;;;;;;-7.25;100.00;100565.84;4997461;28;19936;-56
2023/02/10 06:09:42;;;;;;;;;;;;;;;-7.25;100.00;100561.72;4997768;28;20269;-57
2023/02/10 06:12:08;;;;;;;;;;;;;;;-7.24;100.00;100572.56;4995570;28;19926;-59
2023/02/10 06:14:33;;;;;;;;;;;;;;;-7.04;100.00;100575.94;5029100;28;20028;-62
2023/02/10 06:16:59;;;;;;;;;;;;;;;-7.01;100.00;100580.31;4997419;28;20266;-54
2023/02/10 06:19:24;;;;;;;;;;;;;;;-7.03;100.00;100584.28;4998697;28;20165;-60
2023/02/10 06:21:50;;;;;;;;;;;;;;;-7.03;100.00;100582.66;5015087;28;19957;-59
2023/02/10 06:24:16;;;;;;;;;;;;;;;-7.03;100.00;100586.78;4996287;28;20296;-57
2023/02/10 06:26:41;;;;;;;;;;;;;;;-7.02;100.00;100593.50;5012848;28;20604;-56
2023/02/10 06:29:07;;;;;;;;;;;;;;;-6.99;100.00;100596.25;4997776;28;19929;-56
2023/02/10 06:31:32;;;;;;;;;;;;;;;-6.98;100.00;100601.38;4996719;28;19984;-57
2023/02/10 06:33:58;;;;;;;;;;;;;;;-6.92;100.00;100601.00;4998233;28;19929;-58
2023/02/10 06:36:23;;;;;;;;;;;;;;;-6.87;100.00;100604.72;5026314;28;20467;-59
2023/02/10 06:38:49;;;;;;;;;;;;;;;-6.79;100.00;100606.22;4996035;28;19926;-57
2023/02/10 06:41:14;;;;;;;;;;;;;;;-6.74;100.00;100607.44;4997357;28;19956;-59
2023/02/10 06:43:40;;;;;;;;;;;;;;;-6.66;100.00;100608.09;4999157;28;20068;-58
2023/02/10 06:46:06;;;;;;;;;;;;;;;-6.60;100.00;100611.91;4996883;28;20396;-54
2023/02/10 06:48:32;;;;;;;;;;;;;;;-6.52;100.00;100613.41;4994925;28;20012;-58
2023/02/10 06:50:57;;;;;;;;;;;;;;;-6.41;100.00;100619.25;4995169;28;19952;-59
2023/02/10 06:53:23;;;;;;;;;;;;;;;-6.41;100.00;100603.41;4997229;28;20658;-59
2023/02/10 06:55:48;;;;;;;;;;;;;;;-6.26;100.00;100625.44;4998355;28;20466;-56
2023/02/10 06:58:14;;;;;;;;;;;;;;;-6.16;100.00;100622.06;4997264;28;20451;-57
2023/02/10 07:00:40;;;;;;;;;;;;;;;-6.02;100.00;100627.34;4995150;28;19933;-54
2023/02/10 07:03:05;;;;;;;;;;;;;;;-5.94;100.00;100625.44;4994493;28;20324;-56
2023/02/10 07:05:31;;;;;;;;;;;;;;;-5.80;100.00;100619.88;4992219;28;20029;-57
2023/02/10 07:07:58;;;;;;;;;;;;;;;-5.65;100.00;100625.19;4993559;28;20376;-56
2023/02/10 07:10:25;;;;;;;;;;;;;;;-5.48;100.00;100619.84;4995632;28;19932;-57
2023/02/10 07:12:51;;;;;;;;;;;;;;;-5.36;100.00;100619.88;4991127;28;20000;-56
2023/02/10 07:15:18;;;;;;;;;;;;;;;-5.30;100.00;100622.81;4993775;28;20202;-55
2023/02/10 07:17:44;;;;;;;;;;;;;;;-5.23;100.00;100623.44;5010504;28;19945;-57
2023/02/10 07:20:10;;;;;;;;;;;;;;;-5.05;100.00;100623.94;4994497;28;19961;-56
2023/02/10 07:22:35;;;;;;;;;;;;;;;-4.89;100.00;100631.81;4992835;28;20151;-55
2023/02/10 07:25:01;;;;;;;;;;;;;;;-4.80;100.00;100637.50;4992291;28;20009;-54
2023/02/10 07:27:26;;;;;;;;;;;;;;;-4.65;100.00;100631.09;4992579;28;19969;-54
2023/02/10 07:29:52;;;;;;;;;;;;;;;-4.44;100.00;100623.38;4992438;28;19936;-54
2023/02/10 07:32:17;;;;;;;;;;;;;;;-4.30;100.00;100632.75;4993859;28;19929;-57
2023/02/10 07:34:42;;;;;;;;;;;;;;;-4.12;100.00;100634.06;4990138;28;19988;-58
2023/02/10 07:37:09;;;;;;;;;;;;;;;-3.97;100.00;100636.78;4993142;28;19991;-55
2023/02/10 07:39:34;;;;;;;;;;;;;;;-3.85;100.00;100627.59;4994544;28;20571;-52
2023/02/10 07:42:00;;;;;;;;;;;;;;;-3.79;100.00;100630.53;4994567;28;19930;-51
2023/02/10 07:44:36;;;;;;;;;;;;;;;-3.52;100.00;100624.06;5006608;28;19926;-54
2023/02/10 07:47:01;;;;;;;;;;;;;;;-3.38;100.00;100625.84;4995392;28;19932;-57
2023/02/10 07:49:28;;;;;;;;;;;;;;;-3.22;100.00;100628.63;4993759;28;19968;-55
2023/02/10 07:51:55;;;;;;;;;;;;;;;-3.06;100.00;100633.91;4994917;28;20503;-56
2023/02/10 07:54:24;;;;;;;;;;;;;;;-2.98;100.00;100635.28;4996194;28;19972;-53
2023/02/10 07:56:49;;;;;;;;;;;;;;;-2.94;100.00;100639.75;4997175;28;20401;-59
2023/02/10 07:59:15;;;;;;;;;;;;;;;-3.05;100.00;100642.28;4998546;28;19929;-57
2023/02/10 08:01:41;;;;;;;;;;;;;;;-2.77;100.00;100635.84;4996300;28;19926;-58
2023/02/10 08:04:07;;;;;;;;;;;;;;;-2.67;100.00;100643.19;4994446;28;20396;-58
2023/02/10 08:06:32;;;;;;;;;;;;;;;-2.41;100.00;100652.41;4995476;28;19925;-53
2023/02/10 08:08:58;;;;;;;;;;;;;;;-2.24;100.00;100644.31;4994410;28;20396;-54
2023/02/10 08:11:23;;;;;;;;;;;;;;;-2.11;100.00;100649.34;4995995;28;20155;-58
2023/02/10 08:13:49;;;;;;;;;;;;;;;-1.87;100.00;100650.03;4997768;28;20485;-56
2023/02/10 08:16:14;;;;;;;;;;;;;;;-1.78;100.00;100649.72;5028640;28;20367;-55
2023/02/10 08:18:40;;;;;;;;;;;;;;;-1.67;100.00;100649.63;4998644;28;19929;-56
2023/02/10 08:21:06;;;;;;;;;;;;;;;-1.47;100.00;100659.25;4995352;28;19925;-54
2023/02/10 08:23:31;;;;;;;;;;;;;;;-1.34;100.00;100659.97;4994406;28;19936;-54
2023/02/10 08:25:57;;;;;;;;;;;;;;;-1.22;100.00;100665.75;4996044;28;20005;-55
2023/02/10 08:28:22;;;;;;;;;;;;;;;-1.20;100.00;100659.16;4995324;28;19972;-57
2023/02/10 08:30:48;;;;;;;;;;;;;;;-1.15;100.00;100663.72;4993782;28;19929;-56
2023/02/10 08:33:14;;;;;;;;;;;;;;;-1.00;100.00;100657.06;4997030;28;19933;-57
2023/02/10 08:35:40;;;;;;;;;;;;;;;-1.04;100.00;100669.38;4997061;28;19933;-58
2023/02/10 08:38:06;;;;;;;;;;;;;;;-1.04;100.00;100665.22;4992363;28;19925;-55
2023/02/10 08:40:32;;;;;;;;;;;;;;;-0.88;100.00;100663.59;4995735;28;19932;-55
2023/02/10 08:42:58;;;;;;;;;;;;;;;-1.03;100.00;100669.47;4953934;28;1257483;-57
2023/02/10 08:45:23;;;;;;;;;;;;;;;-0.75;100.00;100661.00;4994515;28;20313;-55
2023/02/10 08:47:52;;;;;;;;;;;;;;;-0.57;100.00;100662.06;4996386;28;19944;-58
2023/02/10 08:50:17;;;;;;;;;;;;;;;-0.34;100.00;100655.84;4999233;28;20214;-55
2023/02/10 08:52:43;;;;;;;;;;;;;;;-0.16;100.00;100657.72;4997969;28;20452;-56
2023/02/10 08:55:08;;;;;;;;;;;;;;;0.06;100.00;100651.34;5012605;28;20379;-52
2023/02/10 08:57:34;;;;;;;;;;;;;;;0.15;100.00;100646.81;4995680;28;19929;-55
2023/02/10 08:59:59;;;;;;;;;;;;;;;0.33;99.58;100658.78;4996163;28;19961;-56
2023/02/10 09:02:25;;;;;;;;;;;;;;;1.27;100.00;100652.75;4993295;28;19925;-55
2023/02/10 09:04:51;;;;;;;;;;;;;;;1.20;100.00;100659.16;4998362;28;20403;-53
2023/02/10 09:07:16;;;;;;;;;;;;;;;2.10;99.57;100653.44;4996531;28;19925;-54
2023/02/10 09:09:42;;;;;;;;;;;;;;;2.18;91.77;100653.00;4996239;28;19932;-52
2023/02/10 09:12:10;;;;;;;;;;;;;;;2.10;90.04;100656.84;4998121;28;19937;-57
2023/02/10 09:14:36;;;;;;;;;;;;;;;2.49;90.96;100651.91;4996094;28;19929;-55
2023/02/10 09:17:01;;;;;;;;;;;;;;;2.61;86.14;100645.72;4994262;28;19929;-52
2023/02/10 09:19:30;;;;;;;;;;;;;;;2.44;85.62;100648.28;4995193;28;20722;-55
2023/02/10 09:21:56;;;;;;;;;;;;;;;2.78;88.53;100650.66;4997452;28;19933;-57
2023/02/10 09:24:21;;;;;;;;;;;;;;;3.11;88.69;100647.94;4997593;28;20237;-55
2023/02/10 09:26:47;;;;;;;;;;;;;;;3.49;83.66;100657.16;4994956;28;20039;-57
2023/02/10 09:29:13;;;;;;;;;;;;;;;3.44;78.74;100652.69;4996633;28;19952;-55
2023/02/10 09:31:39;;;;;;;;;;;;;;;3.11;79.42;100657.19;4996685;28;19929;-55
2023/02/10 09:34:04;;;;;;;;;;;;;;;3.32;74.65;100653.06;4995851;28;19968;-57
2023/02/10 09:36:30;;;;;;;;;;;;;;;3.65;72.07;100658.66;4994557;28;19929;-55
2023/02/10 09:38:56;;;;;;;;;;;;;;;4.04;69.05;100651.78;4997610;28;19929;-54
2023/02/10 09:41:21;;;;;;;;;;;;;;;3.98;62.95;100651.56;4994122;28;20443;-54
2023/02/10 09:43:55;;;;;;;;;;;;;;;3.91;64.72;100657.16;4995849;28;19980;-52
2023/02/10 09:46:40;;;;;;;;;;;;;;;3.83;62.08;100653.47;4995710;28;19932;-53
2023/02/10 09:49:32;;;;;;;;;;;;;;;3.90;59.14;100650.38;5011681;28;19986;-52
2023/02/10 09:52:16;;;;;;;;;;;;;;;4.16;60.99;100644.63;4994108;28;20467;-54
2023/02/10 09:54:43;;;;;;;;;;;;;;;4.13;60.99;100655.53;4996364;28;19925;-52
2023/02/10 09:57:20;;;;;;;;;;;;;;;4.32;60.97;100653.72;4995863;28;19929;-56
2023/02/10 09:59:48;;;;;;;;;;;;;;;4.56;61.37;100658.06;4996638;28;19929;-55
2023/02/10 10:02:14;;;;;;;;;;;;;;;4.18;59.11;100650.66;4999395;28;19930;-55
2023/02/10 10:04:42;;;;;;;;;;;;;;;4.04;59.58;100654.31;5029088;28;19932;-54
2023/02/10 10:07:11;;;;;;;;;;;;;;;3.97;60.82;100652.34;4997563;28;20300;-56
2023/02/10 10:09:40;;;;;;;;;;;;;;;3.83;60.96;100650.94;4997913;28;20024;-52
2023/02/10 10:12:07;;;;;;;;;;;;;;;3.90;62.03;100641.09;4997121;28;19925;-53
2023/02/10 10:14:37;;;;;;;;;;;;;;;3.94;62.16;100650.56;4994931;28;19926;-55
2023/02/10 10:17:21;;;;;;;;;;;;;;;3.89;63.48;100643.56;4992435;28;19926;-55
2023/02/10 10:19:50;;;;;;;;;;;;;;;3.91;64.48;100647.03;4997252;28;20007;-58
2023/02/10 10:22:34;;;;;;;;;;;;;;;3.98;65.12;100636.31;4997358;28;19933;-56
2023/02/10 10:25:05;;;;;;;;;;;;;;;3.90;67.52;100633.50;4995952;28;20044;-56
2023/02/10 10:27:49;;;;;;;;;;;;;;;3.95;67.98;100636.19;4998677;28;19964;-57
2023/02/10 10:30:29;;;;;;;;;;;;;;;4.00;69.37;100620.34;4994684;28;20400;-54
2023/02/10 10:33:02;;;;;;;;;;;;;;;4.24;67.45;100629.72;4993998;28;19925;-55
2023/02/10 10:35:31;;;;;;;;;;;;;;;4.26;68.09;100621.34;4994486;28;20318;-55
2023/02/10 10:37:57;;;;;;;;;;;;;;;4.38;66.10;100616.72;4994334;28;19925;-55
2023/02/10 10:40:26;;;;;;;;;;;;;;;4.47;65.81;100618.75;4993948;28;20326;-55
2023/02/10 10:42:59;;;;;;;;;;;;;;;4.38;67.46;100615.84;4994520;28;20385;-53
2023/02/10 10:45:32;;;;;;;;;;;;;;;4.49;66.65;100617.16;4993340;28;19951;-56
2023/02/10 10:48:05;;;;;;;;;;;;;;;4.60;67.39;100606.56;4992071;28;19925;-54
2023/02/10 10:50:31;;;;;;;;;;;;;;;4.67;66.48;100594.94;4994356;28;19925;-54
2023/02/10 10:52:57;;;;;;;;;;;;;;;4.57;66.22;100587.81;5011018;28;19929;-55
2023/02/10 10:55:35;;;;;;;;;;;;;;;4.59;66.29;100588.72;4996733;28;19980;-57
2023/02/10 10:58:02;;;;;;;;;;;;;;;4.54;67.61;100590.25;4996074;28;19925;-58
2023/02/10 11:00:31;;;;;;;;;;;;;;;4.70;65.53;100597.59;4996967;28;20340;-56
2023/02/10 11:03:03;;;;;;;;;;;;;;;4.76;64.26;100589.31;4997646;28;19925;-57
2023/02/10 11:05:35;;;;;;;;;;;;;;;4.75;63.99;100591.03;5029635;28;19925;-56
2023/02/10 11:08:03;;;;;;;;;;;;;;;4.79;64.87;100581.81;4996677;28;19971;-56
2023/02/10 11:10:48;;;;;;;;;;;;;;;5.05;65.64;100586.13;4996076;28;20359;-55
2023/02/10 11:13:21;;;;;;;;;;;;;;;5.13;64.07;100594.91;5007942;28;20330;-56
2023/02/10 11:15:47;;;;;;;;;;;;;;;5.28;63.36;100577.59;5000000;28;19925;-56
2023/02/10 11:18:18;;;;;;;;;;;;;;;5.35;62.66;100576.09;4997172;28;19973;-57
2023/02/10 11:20:52;;;;;;;;;;;;;;;5.15;61.48;100570.38;4994362;28;19925;-56
2023/02/10 11:23:17;;;;;;;;;;;;;;;5.26;61.79;100569.03;4998369;28;19929;-54
2023/02/10 11:25:54;;;;;;;;;;;;;;;5.44;60.40;100550.97;4994514;28;19941;-58
2023/02/10 11:28:20;;;;;;;;;;;;;;;5.66;59.25;100553.41;4997218;28;19957;-55
2023/02/10 11:30:47;;;;;;;;;;;;;;;5.63;58.56;100549.91;4997618;28;19925;-56
2023/02/10 11:33:23;;;;;;;;;;;;;;;5.59;59.04;100548.06;4997635;28;19937;-54
2023/02/10 11:35:50;;;;;;;;;;;;;;;5.50;58.83;100544.44;4998850;28;19944;-56
2023/02/10 11:38:19;;;;;;;;;;;;;;;5.60;57.88;100540.47;4997044;28;19926;-55
2023/02/10 11:40:53;;;;;;;;;;;;;;;5.52;59.23;100547.88;5030641;28;20537;-53
2023/02/10 11:43:19;;;;;;;;;;;;;;;5.58;58.37;100537.03;4997807;28;19925;-53
2023/02/10 11:45:52;;;;;;;;;;;;;;;5.67;58.00;100532.22;4999905;28;19932;-57
2023/02/10 11:48:20;;;;;;;;;;;;;;;5.79;57.41;100545.34;4997384;28;20395;-53
2023/02/10 11:50:46;;;;;;;;;;;;;;;5.70;56.06;100529.78;5010912;28;19925;-54
2023/02/10 11:53:25;;;;;;;;;;;;;;;5.91;56.65;100517.72;4999832;28;19936;-56
2023/02/10 11:55:57;;;;;;;;;;;;;;;6.02;57.74;100514.66;5000748;28;19932;-57
2023/02/10 12:01:16;;;;;;;;;;;;;;;5.75;57.21;100514.66;4999177;28;19991;-57
2023/02/10 12:03:42;;;;;;;;;;;;;;;5.81;56.62;100509.75;4997739;28;20246;-58
2023/02/10 12:06:19;;;;;;;;;;;;;;;5.93;57.42;100516.13;4997414;28;20455;-57
2023/02/10 12:09:04;;;;;;;;;;;;;;;5.93;55.20;100511.03;4996606;28;20907;-57
2023/02/10 12:11:39;;;;;;;;;;;;;;;6.00;54.64;100516.28;5000881;28;19937;-60
2023/02/10 12:14:19;;;;;;;;;;;;;;;6.00;54.76;100519.69;4999781;28;19926;-56
2023/02/10 12:16:56;;;;;;;;;;;;;;;5.94;54.96;100533.09;4999283;28;19929;-56
2023/02/10 12:19:35;;;;;;;;;;;;;;;6.09;56.39;100521.66;4995769;28;20285;-55
2023/02/10 12:22:18;;;;;;;;;;;;;;;6.33;54.23;100530.84;4996099;28;19929;-58
2023/02/10 12:24:46;;;;;;;;;;;;;;;6.25;53.70;100529.78;4996519;28;19976;-58
2023/02/10 12:27:11;;;;;;;;;;;;;;;6.26;53.62;100526.41;5010046;28;20508;-58
2023/02/10 12:29:56;;;;;;;;;;;;;;;6.12;52.64;100521.72;4996302;28;19987;-58
2023/02/10 12:32:21;;;;;;;;;;;;;;;6.31;53.16;100519.78;4996797;28;19926;-61
2023/02/10 12:35:05;;;;;;;;;;;;;;;6.29;52.23;100534.13;4996023;28;19932;-57
2023/02/10 12:37:33;;;;;;;;;;;;;;;6.22;53.20;100523.72;4995377;28;19937;-56
2023/02/10 12:40:14;;;;;;;;;;;;;;;6.14;52.85;100497.19;5000159;28;19932;-57